sensor_id;sensor_type;location;lat;lon;timestamp;P1;durP1;ratioP1;P2;durP2;ratioP2
12459;SDS011;6295;49.452;8.466;2022-07-26T00:02:46;2.87;;;2.17;;
12459;SDS011;6295;49.452;8.466;2022-07-26T00:06:48;2.33;;;2.13;;
12459;SDS011;6295;49.452;8.466;2022-07-26T00:10:51;3.20;;;2.50;;
12459;SDS011;6295;49.452;8.466;2022-07-26T00:14:53;3.97;;;2.20;;
12459;SDS011;6295;49.452;8.466;2022-07-26T00:18:56;3.77;;;2.30;;
12459;SDS011;6295;49.452;8.466;2022-07-26T00:22:58;2.37;;;2.17;;
12459;SDS011;6295;49.452;8.466;2022-07-26T00:27:01;2.57;;;2.10;;
12459;SDS011;6295;49.452;8.466;2022-07-26T00:31:03;2.40;;;2.10;;
12459;SDS011;6295;49.452;8.466;2022-07-26T00:35:07;2.37;;;2.17;;
12459;SDS011;6295;49.452;8.466;2022-07-26T00:39:09;2.43;;;2.20;;
12459;SDS011;6295;49.452;8.466;2022-07-26T00:43:12;2.53;;;2.33;;
12459;SDS011;6295;49.452;8.466;2022-07-26T00:47:14;2.40;;;2.20;;
12459;SDS011;6295;49.452;8.466;2022-07-26T00:51:18;3.50;;;2.30;;
12459;SDS011;6295;49.452;8.466;2022-07-26T00:55:21;4.67;;;2.27;;
12459;SDS011;6295;49.452;8.466;2022-07-26T00:59:23;3.37;;;2.40;;
12459;SDS011;6295;49.452;8.466;2022-07-26T01:03:25;2.40;;;2.20;;
12459;SDS011;6295;49.452;8.466;2022-07-26T01:07:29;2.40;;;2.20;;
12459;SDS011;6295;49.452;8.466;2022-07-26T01:11:31;3.00;;;2.30;;
12459;SDS011;6295;49.452;8.466;2022-07-26T01:15:33;3.17;;;2.50;;
12459;SDS011;6295;49.452;8.466;2022-07-26T01:19:35;2.70;;;2.50;;
12459;SDS011;6295;49.452;8.466;2022-07-26T01:23:39;3.50;;;2.70;;
12459;SDS011;6295;49.452;8.466;2022-07-26T01:27:42;2.53;;;2.30;;
12459;SDS011;6295;49.452;8.466;2022-07-26T01:31:44;4.07;;;2.30;;
12459;SDS011;6295;49.452;8.466;2022-07-26T01:35:46;3.77;;;2.60;;
12459;SDS011;6295;49.452;8.466;2022-07-26T01:39:50;5.00;;;2.30;;
12459;SDS011;6295;49.452;8.466;2022-07-26T01:43:52;2.57;;;2.37;;
12459;SDS011;6295;49.452;8.466;2022-07-26T01:47:54;3.00;;;2.33;;
12459;SDS011;6295;49.452;8.466;2022-07-26T01:51:56;3.07;;;2.77;;
12459;SDS011;6295;49.452;8.466;2022-07-26T01:55:59;3.27;;;2.70;;
12459;SDS011;6295;49.452;8.466;2022-07-26T02:00:02;4.07;;;2.60;;
12459;SDS011;6295;49.452;8.466;2022-07-26T02:04:05;3.83;;;2.37;;
12459;SDS011;6295;49.452;8.466;2022-07-26T02:08:07;2.53;;;2.30;;
12459;SDS011;6295;49.452;8.466;2022-07-26T02:12:11;3.67;;;2.80;;
12459;SDS011;6295;49.452;8.466;2022-07-26T02:16:13;2.93;;;2.63;;
12459;SDS011;6295;49.452;8.466;2022-07-26T02:20:15;6.13;;;2.60;;
12459;SDS011;6295;49.452;8.466;2022-07-26T02:24:18;2.60;;;2.40;;
12459;SDS011;6295;49.452;8.466;2022-07-26T02:28:21;3.07;;;2.30;;
12459;SDS011;6295;49.452;8.466;2022-07-26T02:32:24;4.07;;;2.40;;
12459;SDS011;6295;49.452;8.466;2022-07-26T02:36:26;2.57;;;2.20;;
12459;SDS011;6295;49.452;8.466;2022-07-26T02:40:28;3.30;;;2.83;;
12459;SDS011;6295;49.452;8.466;2022-07-26T02:44:32;2.67;;;2.43;;
12459;SDS011;6295;49.452;8.466;2022-07-26T02:48:35;2.93;;;2.50;;
12459;SDS011;6295;49.452;8.466;2022-07-26T02:52:37;2.93;;;2.50;;
12459;SDS011;6295;49.452;8.466;2022-07-26T02:56:39;4.30;;;2.70;;
12459;SDS011;6295;49.452;8.466;2022-07-26T03:00:43;2.93;;;2.43;;
12459;SDS011;6295;49.452;8.466;2022-07-26T03:04:45;4.47;;;2.57;;
12459;SDS011;6295;49.452;8.466;2022-07-26T03:08:48;3.07;;;2.60;;
12459;SDS011;6295;49.452;8.466;2022-07-26T03:12:50;3.73;;;2.70;;
12459;SDS011;6295;49.452;8.466;2022-07-26T03:16:53;3.63;;;3.00;;
12459;SDS011;6295;49.452;8.466;2022-07-26T03:20:55;3.13;;;2.63;;
12459;SDS011;6295;49.452;8.466;2022-07-26T03:24:57;2.70;;;2.50;;
12459;SDS011;6295;49.452;8.466;2022-07-26T03:29:00;2.80;;;2.60;;
12459;SDS011;6295;49.452;8.466;2022-07-26T03:33:04;3.30;;;2.73;;
12459;SDS011;6295;49.452;8.466;2022-07-26T03:37:06;2.73;;;2.53;;
12459;SDS011;6295;49.452;8.466;2022-07-26T03:41:08;3.20;;;2.90;;
12459;SDS011;6295;49.452;8.466;2022-07-26T03:45:10;3.10;;;2.80;;
12459;SDS011;6295;49.452;8.466;2022-07-26T03:49:14;3.33;;;2.73;;
12459;SDS011;6295;49.452;8.466;2022-07-26T03:53:16;2.80;;;2.60;;
12459;SDS011;6295;49.452;8.466;2022-07-26T03:57:18;3.50;;;2.90;;
12459;SDS011;6295;49.452;8.466;2022-07-26T04:01:20;3.63;;;2.70;;
12459;SDS011;6295;49.452;8.466;2022-07-26T04:05:24;3.50;;;2.63;;
12459;SDS011;6295;49.452;8.466;2022-07-26T04:09:26;5.67;;;2.60;;
12459;SDS011;6295;49.452;8.466;2022-07-26T04:13:28;3.00;;;2.70;;
12459;SDS011;6295;49.452;8.466;2022-07-26T04:17:34;3.87;;;2.90;;
12459;SDS011;6295;49.452;8.466;2022-07-26T04:21:38;3.20;;;2.80;;
12459;SDS011;6295;49.452;8.466;2022-07-26T04:25:41;2.87;;;2.67;;
12459;SDS011;6295;49.452;8.466;2022-07-26T04:29:43;4.50;;;2.90;;
12459;SDS011;6295;49.452;8.466;2022-07-26T04:33:45;5.17;;;2.70;;
12459;SDS011;6295;49.452;8.466;2022-07-26T04:37:48;3.97;;;2.90;;
12459;SDS011;6295;49.452;8.466;2022-07-26T04:41:51;4.70;;;2.80;;
12459;SDS011;6295;49.452;8.466;2022-07-26T04:45:53;5.07;;;3.00;;
12459;SDS011;6295;49.452;8.466;2022-07-26T04:49:56;5.27;;;3.03;;
12459;SDS011;6295;49.452;8.466;2022-07-26T04:53:59;3.93;;;2.80;;
12459;SDS011;6295;49.452;8.466;2022-07-26T04:58:02;4.13;;;2.90;;
12459;SDS011;6295;49.452;8.466;2022-07-26T05:02:04;4.37;;;2.70;;
12459;SDS011;6295;49.452;8.466;2022-07-26T05:06:07;4.30;;;2.37;;
12459;SDS011;6295;49.452;8.466;2022-07-26T05:10:10;6.13;;;2.73;;
12459;SDS011;6295;49.452;8.466;2022-07-26T05:14:13;4.77;;;2.80;;
12459;SDS011;6295;49.452;8.466;2022-07-26T05:18:15;5.57;;;2.70;;
12459;SDS011;6295;49.452;8.466;2022-07-26T05:22:17;4.03;;;2.70;;
12459;SDS011;6295;49.452;8.466;2022-07-26T05:26:21;11.53;;;3.07;;
12459;SDS011;6295;49.452;8.466;2022-07-26T05:30:23;2.97;;;2.23;;
12459;SDS011;6295;49.452;8.466;2022-07-26T05:34:25;5.17;;;2.57;;
12459;SDS011;6295;49.452;8.466;2022-07-26T05:38:27;3.83;;;2.30;;
12459;SDS011;6295;49.452;8.466;2022-07-26T05:42:30;3.53;;;2.40;;
12459;SDS011;6295;49.452;8.466;2022-07-26T05:46:32;5.97;;;2.53;;
12459;SDS011;6295;49.452;8.466;2022-07-26T05:50:36;4.43;;;2.50;;
12459;SDS011;6295;49.452;8.466;2022-07-26T05:54:38;5.20;;;2.60;;
12459;SDS011;6295;49.452;8.466;2022-07-26T05:58:42;5.13;;;2.67;;
12459;SDS011;6295;49.452;8.466;2022-07-26T06:02:44;4.00;;;1.87;;
12459;SDS011;6295;49.452;8.466;2022-07-26T06:06:46;4.17;;;2.37;;
12459;SDS011;6295;49.452;8.466;2022-07-26T06:10:48;3.57;;;2.20;;
12459;SDS011;6295;49.452;8.466;2022-07-26T06:14:53;5.87;;;2.00;;
12459;SDS011;6295;49.452;8.466;2022-07-26T06:18:55;4.60;;;2.07;;
12459;SDS011;6295;49.452;8.466;2022-07-26T06:22:58;2.90;;;1.80;;
12459;SDS011;6295;49.452;8.466;2022-07-26T06:27:01;5.30;;;2.20;;
12459;SDS011;6295;49.452;8.466;2022-07-26T06:31:05;4.57;;;2.80;;
12459;SDS011;6295;49.452;8.466;2022-07-26T06:35:08;4.83;;;2.07;;
12459;SDS011;6295;49.452;8.466;2022-07-26T06:39:10;3.87;;;2.13;;
12459;SDS011;6295;49.452;8.466;2022-07-26T06:43:12;2.63;;;1.80;;
12459;SDS011;6295;49.452;8.466;2022-07-26T06:47:16;5.07;;;2.20;;
12459;SDS011;6295;49.452;8.466;2022-07-26T06:51:18;2.50;;;1.90;;
12459;SDS011;6295;49.452;8.466;2022-07-26T06:55:20;4.00;;;2.00;;
12459;SDS011;6295;49.452;8.466;2022-07-26T06:59:22;5.83;;;2.00;;
12459;SDS011;6295;49.452;8.466;2022-07-26T07:03:26;3.70;;;2.13;;
12459;SDS011;6295;49.452;8.466;2022-07-26T07:07:28;4.10;;;1.90;;
12459;SDS011;6295;49.452;8.466;2022-07-26T07:11:30;3.90;;;1.80;;
12459;SDS011;6295;49.452;8.466;2022-07-26T07:15:32;3.77;;;1.97;;
12459;SDS011;6295;49.452;8.466;2022-07-26T07:19:36;2.27;;;1.63;;
12459;SDS011;6295;49.452;8.466;2022-07-26T07:23:38;2.33;;;1.83;;
12459;SDS011;6295;49.452;8.466;2022-07-26T07:27:40;3.13;;;2.00;;
12459;SDS011;6295;49.452;8.466;2022-07-26T07:31:42;2.13;;;1.60;;
12459;SDS011;6295;49.452;8.466;2022-07-26T07:35:48;3.90;;;1.97;;
12459;SDS011;6295;49.452;8.466;2022-07-26T07:39:50;2.37;;;1.50;;
12459;SDS011;6295;49.452;8.466;2022-07-26T07:43:53;1.60;;;1.50;;
12459;SDS011;6295;49.452;8.466;2022-07-26T07:47:55;2.33;;;1.50;;
12459;SDS011;6295;49.452;8.466;2022-07-26T07:51:58;2.63;;;1.80;;
12459;SDS011;6295;49.452;8.466;2022-07-26T07:56:00;2.00;;;1.80;;
12459;SDS011;6295;49.452;8.466;2022-07-26T08:00:04;2.67;;;1.60;;
12459;SDS011;6295;49.452;8.466;2022-07-26T08:04:09;2.13;;;1.60;;
12459;SDS011;6295;49.452;8.466;2022-07-26T08:08:12;2.73;;;2.00;;
12459;SDS011;6295;49.452;8.466;2022-07-26T08:12:15;4.00;;;2.00;;
12459;SDS011;6295;49.452;8.466;2022-07-26T08:16:18;2.87;;;1.80;;
12459;SDS011;6295;49.452;8.466;2022-07-26T08:20:20;2.97;;;1.70;;
12459;SDS011;6295;49.452;8.466;2022-07-26T08:24:23;3.67;;;1.67;;
12459;SDS011;6295;49.452;8.466;2022-07-26T08:28:26;3.00;;;1.90;;
12459;SDS011;6295;49.452;8.466;2022-07-26T08:32:29;2.90;;;1.60;;
12459;SDS011;6295;49.452;8.466;2022-07-26T08:36:33;2.53;;;1.60;;
12459;SDS011;6295;49.452;8.466;2022-07-26T08:40:37;4.30;;;1.70;;
12459;SDS011;6295;49.452;8.466;2022-07-26T08:44:40;3.07;;;1.77;;
12459;SDS011;6295;49.452;8.466;2022-07-26T08:48:44;2.90;;;1.60;;
12459;SDS011;6295;49.452;8.466;2022-07-26T08:52:46;3.20;;;1.70;;
12459;SDS011;6295;49.452;8.466;2022-07-26T08:56:51;1.47;;;1.37;;
12459;SDS011;6295;49.452;8.466;2022-07-26T09:01:02;2.07;;;1.53;;
12459;SDS011;6295;49.452;8.466;2022-07-26T09:05:07;2.43;;;1.50;;
12459;SDS011;6295;49.452;8.466;2022-07-26T09:09:11;3.47;;;1.80;;
12459;SDS011;6295;49.452;8.466;2022-07-26T09:13:16;2.93;;;2.00;;
12459;SDS011;6295;49.452;8.466;2022-07-26T09:17:23;1.77;;;1.60;;
12459;SDS011;6295;49.452;8.466;2022-07-26T09:21:27;2.27;;;1.57;;
12459;SDS011;6295;49.452;8.466;2022-07-26T09:25:31;2.70;;;1.70;;
12459;SDS011;6295;49.452;8.466;2022-07-26T09:29:42;1.87;;;1.60;;
12459;SDS011;6295;49.452;8.466;2022-07-26T09:33:46;3.33;;;1.50;;
12459;SDS011;6295;49.452;8.466;2022-07-26T09:37:49;2.53;;;1.67;;
12459;SDS011;6295;49.452;8.466;2022-07-26T09:41:51;2.07;;;1.50;;
12459;SDS011;6295;49.452;8.466;2022-07-26T09:46:04;1.70;;;1.33;;
12459;SDS011;6295;49.452;8.466;2022-07-26T09:50:07;1.97;;;1.40;;
12459;SDS011;6295;49.452;8.466;2022-07-26T09:54:15;3.03;;;1.53;;
12459;SDS011;6295;49.452;8.466;2022-07-26T09:58:18;1.83;;;1.40;;
12459;SDS011;6295;49.452;8.466;2022-07-26T10:02:22;3.83;;;1.70;;
12459;SDS011;6295;49.452;8.466;2022-07-26T10:06:25;3.80;;;1.30;;
12459;SDS011;6295;49.452;8.466;2022-07-26T10:10:27;2.80;;;1.50;;
12459;SDS011;6295;49.452;8.466;2022-07-26T10:14:34;2.67;;;1.30;;
12459;SDS011;6295;49.452;8.466;2022-07-26T10:18:43;1.97;;;1.40;;
12459;SDS011;6295;49.452;8.466;2022-07-26T10:22:46;2.47;;;1.40;;
12459;SDS011;6295;49.452;8.466;2022-07-26T10:26:49;2.33;;;1.40;;
12459;SDS011;6295;49.452;8.466;2022-07-26T10:30:52;1.60;;;1.40;;
12459;SDS011;6295;49.452;8.466;2022-07-26T10:35:31;1.60;;;1.50;;
12459;SDS011;6295;49.452;8.466;2022-07-26T10:39:39;2.87;;;1.40;;
12459;SDS011;6295;49.452;8.466;2022-07-26T10:43:41;2.03;;;1.50;;
12459;SDS011;6295;49.452;8.466;2022-07-26T10:48:17;1.60;;;1.50;;
12459;SDS011;6295;49.452;8.466;2022-07-26T10:52:23;3.00;;;1.40;;
12459;SDS011;6295;49.452;8.466;2022-07-26T10:56:27;3.63;;;1.43;;
12459;SDS011;6295;49.452;8.466;2022-07-26T11:00:30;3.73;;;1.70;;
12459;SDS011;6295;49.452;8.466;2022-07-26T11:04:33;1.47;;;1.37;;
12459;SDS011;6295;49.452;8.466;2022-07-26T11:08:37;1.77;;;1.60;;
12459;SDS011;6295;49.452;8.466;2022-07-26T11:12:39;1.80;;;1.40;;
12459;SDS011;6295;49.452;8.466;2022-07-26T11:16:41;1.83;;;1.40;;
12459;SDS011;6295;49.452;8.466;2022-07-26T11:20:45;1.63;;;1.40;;
12459;SDS011;6295;49.452;8.466;2022-07-26T11:24:49;1.60;;;1.37;;
12459;SDS011;6295;49.452;8.466;2022-07-26T11:28:53;3.17;;;1.53;;
12459;SDS011;6295;49.452;8.466;2022-07-26T11:32:57;2.73;;;1.53;;
12459;SDS011;6295;49.452;8.466;2022-07-26T11:37:00;1.97;;;1.40;;
12459;SDS011;6295;49.452;8.466;2022-07-26T11:41:06;1.93;;;1.50;;
12459;SDS011;6295;49.452;8.466;2022-07-26T11:45:09;3.27;;;1.70;;
12459;SDS011;6295;49.452;8.466;2022-07-26T11:49:13;1.93;;;1.47;;
12459;SDS011;6295;49.452;8.466;2022-07-26T11:53:21;1.60;;;1.50;;
12459;SDS011;6295;49.452;8.466;2022-07-26T11:57:27;1.93;;;1.60;;
12459;SDS011;6295;49.452;8.466;2022-07-26T12:05:59;2.00;;;1.80;;
12459;SDS011;6295;49.452;8.466;2022-07-26T12:10:03;1.80;;;1.50;;
12459;SDS011;6295;49.452;8.466;2022-07-26T12:14:07;2.33;;;1.60;;
12459;SDS011;6295;49.452;8.466;2022-07-26T12:18:09;3.00;;;1.67;;
12459;SDS011;6295;49.452;8.466;2022-07-26T12:22:12;1.87;;;1.50;;
12459;SDS011;6295;49.452;8.466;2022-07-26T12:26:20;4.17;;;1.80;;
12459;SDS011;6295;49.452;8.466;2022-07-26T12:30:25;2.87;;;1.70;;
12459;SDS011;6295;49.452;8.466;2022-07-26T12:34:27;1.50;;;1.40;;
12459;SDS011;6295;49.452;8.466;2022-07-26T12:38:37;2.60;;;1.77;;
12459;SDS011;6295;49.452;8.466;2022-07-26T12:42:40;1.70;;;1.60;;
12459;SDS011;6295;49.452;8.466;2022-07-26T12:46:45;2.30;;;1.50;;
12459;SDS011;6295;49.452;8.466;2022-07-26T12:50:47;1.80;;;1.67;;
12459;SDS011;6295;49.452;8.466;2022-07-26T12:54:49;1.60;;;1.50;;
12459;SDS011;6295;49.452;8.466;2022-07-26T12:58:53;2.83;;;1.53;;
12459;SDS011;6295;49.452;8.466;2022-07-26T13:03:01;2.40;;;1.70;;
12459;SDS011;6295;49.452;8.466;2022-07-26T13:07:03;3.03;;;1.60;;
12459;SDS011;6295;49.452;8.466;2022-07-26T13:11:06;2.00;;;1.80;;
12459;SDS011;6295;49.452;8.466;2022-07-26T13:15:08;2.47;;;1.80;;
12459;SDS011;6295;49.452;8.466;2022-07-26T13:19:12;3.07;;;1.53;;
12459;SDS011;6295;49.452;8.466;2022-07-26T13:23:14;2.60;;;1.50;;
12459;SDS011;6295;49.452;8.466;2022-07-26T13:27:17;2.13;;;1.67;;
12459;SDS011;6295;49.452;8.466;2022-07-26T13:31:19;3.03;;;1.70;;
12459;SDS011;6295;49.452;8.466;2022-07-26T13:35:22;2.13;;;1.60;;
12459;SDS011;6295;49.452;8.466;2022-07-26T13:39:25;3.63;;;1.57;;
12459;SDS011;6295;49.452;8.466;2022-07-26T13:43:27;2.20;;;1.60;;
12459;SDS011;6295;49.452;8.466;2022-07-26T13:47:30;2.23;;;1.60;;
12459;SDS011;6295;49.452;8.466;2022-07-26T13:51:36;1.70;;;1.60;;
12459;SDS011;6295;49.452;8.466;2022-07-26T13:55:57;2.10;;;1.90;;
12459;SDS011;6295;49.452;8.466;2022-07-26T13:59:59;3.93;;;1.90;;
12459;SDS011;6295;49.452;8.466;2022-07-26T14:04:02;2.63;;;1.80;;
12459;SDS011;6295;49.452;8.466;2022-07-26T14:08:06;2.23;;;1.53;;
12459;SDS011;6295;49.452;8.466;2022-07-26T14:12:11;1.87;;;1.60;;
12459;SDS011;6295;49.452;8.466;2022-07-26T14:16:13;2.80;;;1.77;;
12459;SDS011;6295;49.452;8.466;2022-07-26T14:20:16;2.30;;;1.70;;
12459;SDS011;6295;49.452;8.466;2022-07-26T14:24:21;3.53;;;1.70;;
12459;SDS011;6295;49.452;8.466;2022-07-26T14:28:23;3.20;;;1.90;;
12459;SDS011;6295;49.452;8.466;2022-07-26T14:32:25;3.40;;;1.80;;
12459;SDS011;6295;49.452;8.466;2022-07-26T14:36:28;4.50;;;1.80;;
12459;SDS011;6295;49.452;8.466;2022-07-26T14:40:33;2.83;;;1.83;;
12459;SDS011;6295;49.452;8.466;2022-07-26T14:44:36;2.27;;;1.50;;
12459;SDS011;6295;49.452;8.466;2022-07-26T14:48:38;1.60;;;1.50;;
12459;SDS011;6295;49.452;8.466;2022-07-26T14:52:41;2.37;;;1.60;;
12459;SDS011;6295;49.452;8.466;2022-07-26T14:56:46;2.17;;;1.70;;
12459;SDS011;6295;49.452;8.466;2022-07-26T15:00:49;2.60;;;2.10;;
12459;SDS011;6295;49.452;8.466;2022-07-26T15:04:52;2.63;;;1.80;;
12459;SDS011;6295;49.452;8.466;2022-07-26T15:08:54;2.33;;;1.80;;
12459;SDS011;6295;49.452;8.466;2022-07-26T15:12:57;2.47;;;1.57;;
12459;SDS011;6295;49.452;8.466;2022-07-26T15:17:00;3.50;;;1.70;;
12459;SDS011;6295;49.452;8.466;2022-07-26T15:21:02;1.80;;;1.70;;
12459;SDS011;6295;49.452;8.466;2022-07-26T15:25:05;1.90;;;1.50;;
12459;SDS011;6295;49.452;8.466;2022-07-26T15:29:09;1.70;;;1.60;;
12459;SDS011;6295;49.452;8.466;2022-07-26T15:33:12;1.60;;;1.50;;
12459;SDS011;6295;49.452;8.466;2022-07-26T15:37:14;3.17;;;1.67;;
12459;SDS011;6295;49.452;8.466;2022-07-26T15:41:17;1.60;;;1.50;;
12459;SDS011;6295;49.452;8.466;2022-07-26T15:45:24;1.80;;;1.70;;
12459;SDS011;6295;49.452;8.466;2022-07-26T15:49:26;1.93;;;1.83;;
12459;SDS011;6295;49.452;8.466;2022-07-26T15:53:29;2.10;;;1.63;;
12459;SDS011;6295;49.452;8.466;2022-07-26T15:57:33;3.13;;;1.77;;
12459;SDS011;6295;49.452;8.466;2022-07-26T16:01:37;2.60;;;1.90;;
12459;SDS011;6295;49.452;8.466;2022-07-26T16:05:39;2.90;;;2.70;;
12459;SDS011;6295;49.452;8.466;2022-07-26T16:09:41;2.47;;;2.27;;
12459;SDS011;6295;49.452;8.466;2022-07-26T16:13:43;3.50;;;1.97;;
12459;SDS011;6295;49.452;8.466;2022-07-26T16:17:48;1.50;;;1.40;;
12459;SDS011;6295;49.452;8.466;2022-07-26T16:21:50;1.83;;;1.50;;
12459;SDS011;6295;49.452;8.466;2022-07-26T16:25:52;2.40;;;1.50;;
12459;SDS011;6295;49.452;8.466;2022-07-26T16:29:54;2.83;;;1.60;;
12459;SDS011;6295;49.452;8.466;2022-07-26T16:33:58;3.30;;;1.63;;
12459;SDS011;6295;49.452;8.466;2022-07-26T16:38:00;2.10;;;1.70;;
12459;SDS011;6295;49.452;8.466;2022-07-26T16:42:03;1.57;;;1.47;;
12459;SDS011;6295;49.452;8.466;2022-07-26T16:46:05;1.70;;;1.60;;
12459;SDS011;6295;49.452;8.466;2022-07-26T16:50:09;1.90;;;1.60;;
12459;SDS011;6295;49.452;8.466;2022-07-26T16:54:11;1.90;;;1.70;;
12459;SDS011;6295;49.452;8.466;2022-07-26T16:58:13;2.27;;;1.90;;
12459;SDS011;6295;49.452;8.466;2022-07-26T17:02:15;3.03;;;1.90;;
12459;SDS011;6295;49.452;8.466;2022-07-26T17:06:19;2.40;;;2.00;;
12459;SDS011;6295;49.452;8.466;2022-07-26T17:10:21;2.43;;;1.90;;
12459;SDS011;6295;49.452;8.466;2022-07-26T17:14:24;2.67;;;2.20;;
12459;SDS011;6295;49.452;8.466;2022-07-26T17:18:26;4.03;;;2.70;;
12459;SDS011;6295;49.452;8.466;2022-07-26T17:22:29;3.43;;;2.40;;
12459;SDS011;6295;49.452;8.466;2022-07-26T17:26:32;3.43;;;2.63;;
12459;SDS011;6295;49.452;8.466;2022-07-26T17:30:34;2.40;;;2.20;;
12459;SDS011;6295;49.452;8.466;2022-07-26T17:34:37;2.80;;;2.40;;
12459;SDS011;6295;49.452;8.466;2022-07-26T17:38:43;2.37;;;2.03;;
12459;SDS011;6295;49.452;8.466;2022-07-26T17:42:46;2.97;;;2.50;;
12459;SDS011;6295;49.452;8.466;2022-07-26T17:46:48;2.63;;;2.40;;
12459;SDS011;6295;49.452;8.466;2022-07-26T17:50:55;2.37;;;2.17;;
12459;SDS011;6295;49.452;8.466;2022-07-26T17:55:01;2.27;;;2.00;;
12459;SDS011;6295;49.452;8.466;2022-07-26T17:59:03;2.80;;;2.00;;
12459;SDS011;6295;49.452;8.466;2022-07-26T18:03:05;3.30;;;2.40;;
12459;SDS011;6295;49.452;8.466;2022-07-26T18:07:07;3.37;;;2.70;;
12459;SDS011;6295;49.452;8.466;2022-07-26T18:11:11;3.70;;;2.50;;
12459;SDS011;6295;49.452;8.466;2022-07-26T18:15:13;2.50;;;2.30;;
12459;SDS011;6295;49.452;8.466;2022-07-26T18:19:16;5.03;;;2.47;;
12459;SDS011;6295;49.452;8.466;2022-07-26T18:23:18;2.97;;;1.93;;
12459;SDS011;6295;49.452;8.466;2022-07-26T18:27:22;2.50;;;2.20;;
12459;SDS011;6295;49.452;8.466;2022-07-26T18:31:27;2.80;;;2.30;;
12459;SDS011;6295;49.452;8.466;2022-07-26T18:35:29;3.70;;;2.13;;
12459;SDS011;6295;49.452;8.466;2022-07-26T18:39:31;2.50;;;2.07;;
12459;SDS011;6295;49.452;8.466;2022-07-26T18:43:35;3.17;;;2.20;;
12459;SDS011;6295;49.452;8.466;2022-07-26T18:47:37;4.40;;;2.07;;
12459;SDS011;6295;49.452;8.466;2022-07-26T18:51:40;2.30;;;1.90;;
12459;SDS011;6295;49.452;8.466;2022-07-26T18:55:42;3.47;;;2.00;;
12459;SDS011;6295;49.452;8.466;2022-07-26T18:59:46;3.40;;;2.27;;
12459;SDS011;6295;49.452;8.466;2022-07-26T19:03:48;4.23;;;2.00;;
12459;SDS011;6295;49.452;8.466;2022-07-26T19:07:50;3.73;;;2.30;;
12459;SDS011;6295;49.452;8.466;2022-07-26T19:11:53;2.63;;;2.00;;
12459;SDS011;6295;49.452;8.466;2022-07-26T19:15:56;3.77;;;2.30;;
12459;SDS011;6295;49.452;8.466;2022-07-26T19:19:58;2.93;;;2.40;;
12459;SDS011;6295;49.452;8.466;2022-07-26T19:24:01;2.57;;;2.37;;
12459;SDS011;6295;49.452;8.466;2022-07-26T19:28:03;2.73;;;2.43;;
12459;SDS011;6295;49.452;8.466;2022-07-26T19:32:07;4.00;;;2.70;;
12459;SDS011;6295;49.452;8.466;2022-07-26T19:36:10;3.23;;;2.30;;
12459;SDS011;6295;49.452;8.466;2022-07-26T19:40:12;2.50;;;2.30;;
12459;SDS011;6295;49.452;8.466;2022-07-26T19:44:15;3.50;;;2.60;;
12459;SDS011;6295;49.452;8.466;2022-07-26T19:48:18;4.60;;;2.90;;
12459;SDS011;6295;49.452;8.466;2022-07-26T19:52:20;4.27;;;2.87;;
12459;SDS011;6295;49.452;8.466;2022-07-26T19:56:23;3.40;;;3.10;;
12459;SDS011;6295;49.452;8.466;2022-07-26T20:00:25;6.60;;;3.40;;
12459;SDS011;6295;49.452;8.466;2022-07-26T20:04:29;8.10;;;3.40;;
12459;SDS011;6295;49.452;8.466;2022-07-26T20:08:32;4.00;;;3.40;;
12459;SDS011;6295;49.452;8.466;2022-07-26T20:12:34;5.23;;;3.50;;
12459;SDS011;6295;49.452;8.466;2022-07-26T20:16:37;3.40;;;2.70;;
12459;SDS011;6295;49.452;8.466;2022-07-26T20:20:41;4.60;;;3.33;;
12459;SDS011;6295;49.452;8.466;2022-07-26T20:24:43;3.67;;;3.03;;
12459;SDS011;6295;49.452;8.466;2022-07-26T20:28:45;3.30;;;3.00;;
12459;SDS011;6295;49.452;8.466;2022-07-26T20:32:48;4.60;;;3.30;;
12459;SDS011;6295;49.452;8.466;2022-07-26T20:36:51;3.80;;;3.40;;
12459;SDS011;6295;49.452;8.466;2022-07-26T20:40:54;4.93;;;3.30;;
12459;SDS011;6295;49.452;8.466;2022-07-26T20:44:56;4.30;;;3.00;;
12459;SDS011;6295;49.452;8.466;2022-07-26T20:48:58;3.20;;;2.90;;
12459;SDS011;6295;49.452;8.466;2022-07-26T20:53:01;4.40;;;3.07;;
12459;SDS011;6295;49.452;8.466;2022-07-26T20:57:04;2.87;;;2.63;;
12459;SDS011;6295;49.452;8.466;2022-07-26T21:01:06;3.17;;;2.80;;
12459;SDS011;6295;49.452;8.466;2022-07-26T21:05:08;4.80;;;2.80;;
12459;SDS011;6295;49.452;8.466;2022-07-26T21:09:12;3.57;;;2.57;;
12459;SDS011;6295;49.452;8.466;2022-07-26T21:13:14;4.00;;;3.00;;
12459;SDS011;6295;49.452;8.466;2022-07-26T21:17:16;4.57;;;2.53;;
12459;SDS011;6295;49.452;8.466;2022-07-26T21:21:18;3.80;;;2.87;;
12459;SDS011;6295;49.452;8.466;2022-07-26T21:25:22;3.07;;;2.40;;
12459;SDS011;6295;49.452;8.466;2022-07-26T21:29:24;3.50;;;3.00;;
12459;SDS011;6295;49.452;8.466;2022-07-26T21:33:26;3.57;;;2.93;;
12459;SDS011;6295;49.452;8.466;2022-07-26T21:37:28;4.03;;;3.03;;
12459;SDS011;6295;49.452;8.466;2022-07-26T21:41:32;3.00;;;2.70;;
12459;SDS011;6295;49.452;8.466;2022-07-26T21:45:34;4.90;;;2.63;;
12459;SDS011;6295;49.452;8.466;2022-07-26T21:49:37;4.63;;;2.80;;
12459;SDS011;6295;49.452;8.466;2022-07-26T21:53:39;6.30;;;2.67;;
12459;SDS011;6295;49.452;8.466;2022-07-26T21:57:43;3.93;;;2.80;;
12459;SDS011;6295;49.452;8.466;2022-07-26T22:01:45;3.30;;;3.00;;
12459;SDS011;6295;49.452;8.466;2022-07-26T22:05:47;4.37;;;3.00;;
12459;SDS011;6295;49.452;8.466;2022-07-26T22:09:51;4.00;;;2.93;;
12459;SDS011;6295;49.452;8.466;2022-07-26T22:13:54;4.40;;;2.90;;
12459;SDS011;6295;49.452;8.466;2022-07-26T22:17:57;4.33;;;3.03;;
12459;SDS011;6295;49.452;8.466;2022-07-26T22:22:00;5.33;;;3.10;;
12459;SDS011;6295;49.452;8.466;2022-07-26T22:26:04;3.53;;;3.00;;
12459;SDS011;6295;49.452;8.466;2022-07-26T22:30:08;5.20;;;3.10;;
12459;SDS011;6295;49.452;8.466;2022-07-26T22:34:11;4.07;;;3.40;;
12459;SDS011;6295;49.452;8.466;2022-07-26T22:38:13;4.97;;;3.20;;
12459;SDS011;6295;49.452;8.466;2022-07-26T22:42:16;3.50;;;2.90;;
12459;SDS011;6295;49.452;8.466;2022-07-26T22:46:19;2.87;;;2.63;;
12459;SDS011;6295;49.452;8.466;2022-07-26T22:50:22;3.20;;;2.90;;
12459;SDS011;6295;49.452;8.466;2022-07-26T22:54:24;4.03;;;2.80;;
12459;SDS011;6295;49.452;8.466;2022-07-26T23:13:37;2.70;;;2.50;;
12459;SDS011;6295;49.452;8.466;2022-07-26T23:17:39;3.67;;;2.70;;
12459;SDS011;6295;49.452;8.466;2022-07-26T23:21:42;3.13;;;2.70;;
12459;SDS011;6295;49.452;8.466;2022-07-26T23:25:44;3.17;;;2.60;;
12459;SDS011;6295;49.452;8.466;2022-07-26T23:29:47;3.00;;;2.70;;
12459;SDS011;6295;49.452;8.466;2022-07-26T23:33:50;2.90;;;2.70;;
12459;SDS011;6295;49.452;8.466;2022-07-26T23:37:52;3.53;;;2.60;;
12459;SDS011;6295;49.452;8.466;2022-07-26T23:41:54;3.60;;;2.70;;
12459;SDS011;6295;49.452;8.466;2022-07-26T23:45:57;3.73;;;2.50;;
12459;SDS011;6295;49.452;8.466;2022-07-26T23:49:59;2.97;;;2.67;;
12459;SDS011;6295;49.452;8.466;2022-07-26T23:54:02;2.60;;;2.40;;
12459;SDS011;6295;49.452;8.466;2022-07-26T23:58:04;2.80;;;2.60;;
